Nearby METAR Reports

 

KSWO - Stillwater, Oklahoma, USA
Distance from station: S 17mi, 28km
Updated: Fri, 09-30-2022 9:53am CDT
Clear
Clear
 Wind from S
Wind: S 10 mph , 17 km/h
Temperature: 66°F , 19°C
Dew Point: 41°F , 5°C
Humidity: 40%
Barometer: 30.17 inHg , 1021.7 hPa
Clouds: Clear
Visibility: 10 miles , 16 km
2022/09/30 14:53 KSWO 301453Z 18009KT 10SM CLR 19/05 A3017 RMK AO2 SLP206 T01940050 50003
KCFV - Coffeyville, Kansas, USA
Distance from station: ENE 93mi, 150km
Updated: Fri, 09-30-2022 9:52am CDT
Clear
Clear
 Wind from SSE
Wind: SSE 10 mph , 17 km/h
Temperature: 64°F , 18°C
Dew Point: 43°F , 6°C
Humidity: 46%
Barometer: 30.19 inHg , 1022.4 hPa
Clouds: Clear
Visibility: 10 miles , 16 km
2022/09/30 14:52 KCFV 301452Z AUTO 16009KT 10SM CLR 18/06 A3019 RMK AO2 SLP219 T01830056 51001
KIDP - Independence, Kansas, USA
Distance from station: NE 86mi, 138km
Updated: Fri, 09-30-2022 10:35am CDT
Clear
Clear
 Wind from S
Wind: S 12 mph , 19 km/h
Temperature: 68°F , 20°C
Dew Point: 41°F , 5°C
Humidity: 38%
Barometer: 30.19 inHg , 1022.4 hPa
Clouds: Clear
Visibility: 10 miles , 16 km
2022/09/30 15:35 KIDP 301535Z AUTO 17010KT 10SM CLR 20/05 A3019 RMK AO2 T01960049
 
KIAB - Mcconnell Afb, Kansas, USA
Distance from station: N 84mi, 135km
Updated: Fri, 09-30-2022 9:55am CDT
Partly cloudy
Partly cloudy
 Wind from S
Wind: S 9 mph , 15 km/h
Temperature: 64°F , 18°C
Dew Point: 43°F , 6°C
Humidity: 46%
Barometer: 30.11 inHg , 1019.6 hPa
Clouds: Partly cloudy
Visibility: 10 miles , 16 km
Cloud details: Few Clouds 12000 ft
Partly cloudy 17000 ft
2022/09/30 14:55 KIAB 301455Z AUTO 19008KT 10SM FEW120 SCT170 18/06 A3011 RMK AO2 SLP192 T01830055 53001
KICT - Wichita, Kansas, USA
Distance from station: NNW 88mi, 142km
Updated: Fri, 09-30-2022 9:53am CDT
Mostly cloudy
Mostly cloudy
 Wind from S
Wind: S 17 mph , 28 km/h
Temperature: 66°F , 19°C
Dew Point: 45°F , 7°C
Humidity: 46%
Barometer: 30.12 inHg , 1020 hPa
Clouds: Mostly cloudy
Visibility: 10 miles , 16 km
Cloud details: Mostly cloudy 7000 ft
Mostly cloudy 12000 ft
Mostly cloudy 20000 ft
2022/09/30 14:53 KICT 301453Z 17015KT 10SM BKN070 BKN120 BKN200 19/07 A3012 RMK AO2 SLP192 60000 T01890072 58001
KAAO - Wichita/Jabara, Kansas, USA
Distance from station: N 93mi, 149km
Updated: Fri, 09-30-2022 9:54am CDT
Clear
Clear
 Wind from S
Wind: S 17 mph , 28 km/h, Gust: 25 mph , 41 km/h
Temperature: 68°F , 20°C
Dew Point: 41°F , 5°C
Humidity: 38%
Barometer: 30.13 inHg , 1020.3 hPa
Clouds: Clear
Visibility: 10 miles , 16 km
2022/09/30 14:54 KAAO 301454Z AUTO 18015G22KT 10SM CLR 20/05 A3013 RMK AO2 SLP196 T02000050 50004
 
KWLD - Winfield/Arkansa, Kansas, USA
Distance from station: N 52mi, 84km
Updated: Fri, 09-30-2022 9:54am CDT
Clear
Clear
 Wind from S
Wind: S 15 mph , 24 km/h
Temperature: 66°F , 19°C
Dew Point: 41°F , 5°C
Humidity: 40%
Barometer: 30.16 inHg , 1021.3 hPa
Clouds: Clear
Visibility: 10 miles , 16 km
2022/09/30 14:54 KWLD 301454Z AUTO 18013KT 10SM CLR 19/05 A3016 RMK AO2 SLP206 T01940050 58002
KAVK - Alva, Oklahoma, USA
Distance from station: WNW 94mi, 152km
Updated: Fri, 09-30-2022 10:35am CDT
Clear
Clear
 Wind from S
Wind: S 13 mph , 20 km/h, Gust: 20 mph , 31 km/h
Temperature: 70°F , 21°C
Dew Point: 43°F , 6°C
Humidity: 38%
Barometer: 30.12 inHg , 1020 hPa
Clouds: Clear
Visibility: 10 miles , 16 km
2022/09/30 15:35 KAVK 301535Z AUTO 18011G17KT 10SM CLR 21/06 A3012 RMK AO2 PWINO
KBVO - Bartlesville, Oklahoma, USA
Distance from station: ENE 61mi, 98km
Updated: Fri, 09-30-2022 9:53am CDT
Clear
Clear
 Wind from SSE
Wind: SSE 9 mph , 15 km/h
Temperature: 63°F , 17°C
Dew Point: 45°F , 7°C
Humidity: 52%
Barometer: 30.20 inHg , 1022.7 hPa
Clouds: Clear
Visibility: 10 miles , 16 km
2022/09/30 14:53 KBVO 301453Z AUTO 16008KT 10SM CLR 17/07 A3020 RMK AO2 SLP220 T01720067 50001
 
KBKN - Blackwell, Oklahoma, USA
Distance from station: NW 29mi, 47km
Updated: Thu, 09-08-2022 6:15pm CDT
NOT Current
Clear
Clear
 Wind from ESE
Wind: ESE 12 mph , 19 km/h
Temperature: 90°F , 32°C
Dew Point: 54°F , 12°C
Humidity: 29%
Barometer: 29.81 inHg , 1009.5 hPa
Clouds: Clear
2022/09/08 23:15 KBKN 082315Z AUTO 12010KT CLR 32/12 A2981 RMK AO2
KGCM - Claremore, Oklahoma, USA
Distance from station: E 86mi, 138km
Updated: Fri, 09-30-2022 10:35am CDT
Clear
Clear
 Wind from SE
Wind: SE 5 mph , 7 km/h
Temperature: 64°F , 18°C
Dew Point: 36°F , 2°C
Humidity: 34%
Barometer: 30.21 inHg , 1023 hPa
Clouds: Clear
Visibility: 7 miles , 11 km
2022/09/30 15:35 KGCM 301535Z AUTO 13004KT 7SM CLR 18/02 A3021 RMK AO2
KCQB - Chandler, Oklahoma, USA
Distance from station: SSE 50mi, 80km
Updated: Fri, 09-30-2022 10:35am CDT
Clear
Clear
 Wind from SSE
Wind: SSE 7 mph , 11 km/h
Temperature: 68°F , 20°C
Dew Point: 41°F , 5°C
Humidity: 38%
Barometer: 30.18 inHg , 1022 hPa
Clouds: Clear
Visibility: 10 miles , 16 km
2022/09/30 15:35 KCQB 301535Z AUTO 16006KT 10SM CLR 20/05 A3018 RMK AO2 T01990055
 
KCUH - Cushing, Oklahoma, USA
Distance from station: SSE 35mi, 57km
Updated: Fri, 09-30-2022 10:35am CDT
Clear
Clear
 Wind from SSE
Wind: SSE 8 mph , 13 km/h
Temperature: 66°F , 19°C
Dew Point: 39°F , 4°C
Humidity: 37%
Barometer: 30.17 inHg , 1021.7 hPa
Clouds: Clear
Visibility: 10 miles , 16 km
2022/09/30 15:35 KCUH 301535Z AUTO 16007KT 10SM CLR 19/04 A3017 RMK AO2 T01910043
KRQO - El Reno Muni, Oklahoma, USA
Distance from station: SW 85mi, 137km
Updated: Fri, 09-30-2022 10:35am CDT
Clear
Clear
 Wind from S
Wind: S 16 mph , 26 km/h
Temperature: 68°F , 20°C
Dew Point: 43°F , 6°C
Humidity: 40%
Barometer: 30.17 inHg , 1021.7 hPa
Clouds: Clear
2022/09/30 15:35 KRQO 301535Z AUTO 17014KT CLR 20/06 A3017 RMK AO2 PWINO T01980060
KEND - Enid/Vance Afb, Oklahoma, USA
Distance from station: W 50mi, 81km
Updated: Fri, 09-30-2022 9:55am CDT
Mostly cloudy
Mostly cloudy
 Wind from S
Wind: S 16 mph , 26 km/h
Temperature: 68°F , 20°C
Dew Point: 43°F , 6°C
Humidity: 40%
Barometer: 30.11 inHg , 1019.6 hPa
Clouds: Mostly cloudy
Visibility: 10 miles , 16 km
Cloud details: Mostly cloudy 14000 ft
2022/09/30 14:55 KEND 301455Z AUTO 17014KT 10SM BKN140 20/06 A3011 RMK AO2 SLP190 60000 T01970061 55001
 
KWDG - Enid/Woodring, Oklahoma, USA
Distance from station: W 42mi, 67km
Updated: Fri, 09-30-2022 10:45am CDT
Partly cloudy
Partly cloudy
 Wind from S
Wind: S 16 mph , 26 km/h
Temperature: 72°F , 22°C
Dew Point: 41°F , 5°C
Humidity: 33%
Barometer: 30.12 inHg , 1020 hPa
Clouds: Partly cloudy
Visibility: 10 miles , 16 km
Cloud details: Partly cloudy 12000 ft
2022/09/30 15:45 KWDG 301545Z 17014KT 10SM SCT120 22/05 A3012
KGOK - Guthrie, Oklahoma, USA
Distance from station: SSW 44mi, 71km
Updated: Fri, 09-30-2022 9:53am CDT
Clear
Clear
 Wind from S
Wind: S 14 mph , 22 km/h
Temperature: 66°F , 19°C
Dew Point: 41°F , 5°C
Humidity: 40%
Barometer: 30.16 inHg , 1021.3 hPa
Clouds: Clear
Visibility: 10 miles , 16 km
2022/09/30 14:53 KGOK 301453Z AUTO 18012KT 10SM CLR 19/05 A3016 RMK AO2 SLP208 T01890050 51006
KOUN - Norman/Westheime, Oklahoma, USA
Distance from station: SSW 84mi, 136km
Updated: Fri, 09-30-2022 10:45am CDT
Clear
Clear
 Wind from SE
Wind: SE 10 mph , 17 km/h
Temperature: 68°F , 20°C
Dew Point: 43°F , 6°C
Humidity: 40%
Barometer: 30.15 inHg , 1021 hPa
Clouds: Clear
Visibility: 10 miles , 16 km
2022/09/30 15:45 KOUN 301545Z 13009KT 10SM CLR 20/06 A3015
 
KOKC - Oklahoma City, Oklahoma, USA
Distance from station: SSW 78mi, 126km
Updated: Fri, 09-30-2022 9:52am CDT
Few Clouds
Few Clouds
 Wind from SSE
Wind: SSE 15 mph , 24 km/h
Temperature: 63°F , 17°C
Dew Point: 43°F , 6°C
Humidity: 49%
Barometer: 30.16 inHg , 1021.3 hPa
Clouds: Few Clouds
Visibility: 10 miles , 16 km
Cloud details: Few Clouds 12000 ft
2022/09/30 14:52 KOKC 301452Z 16013KT 10SM FEW120 17/06 A3016 RMK AO2 SLP206 T01720056 53006
KPWA - Okla City/Wiley, Oklahoma, USA
Distance from station: SSW 70mi, 113km
Updated: Fri, 09-30-2022 9:53am CDT
Clear
Clear
 Wind from S
Wind: S 17 mph , 28 km/h
Temperature: 64°F , 18°C
Dew Point: 43°F , 6°C
Humidity: 46%
Barometer: 30.15 inHg , 1021 hPa
Clouds: Clear
Visibility: 10 miles , 16 km
2022/09/30 14:53 KPWA 301453Z 17015KT 10SM CLR 18/06 A3015 RMK AO2 SLP202 T01830056 50004
KRCE - Okla City/Page, Oklahoma, USA
Distance from station: SW 78mi, 126km
Updated: Fri, 09-30-2022 10:35am CDT
Clear
Clear
 Wind from SSE
Wind: SSE 16 mph , 26 km/h
Temperature: 68°F , 20°C
Dew Point: 41°F , 5°C
Humidity: 38%
Barometer: 30.15 inHg , 1021 hPa
Clouds: Clear
Visibility: 10 miles , 16 km
2022/09/30 15:35 KRCE 301535Z AUTO 16014KT 10SM CLR 20/05 A3015 RMK AO2
 
KOKM - Okmulgee, Oklahoma, USA
Distance from station: SE 79mi, 127km
Updated: Fri, 09-30-2022 10:35am CDT
Clear
Clear
 Wind from SSE
Wind: SSE 8 mph , 13 km/h
Temperature: 68°F , 20°C
Dew Point: 41°F , 5°C
Humidity: 38%
Barometer: 30.19 inHg , 1022.4 hPa
Clouds: Clear
Visibility: 10 miles , 16 km
2022/09/30 15:35 KOKM 301535Z AUTO 15007KT 10SM CLR 20/05 A3019 RMK AO2 T02020049
KPNC - Ponca City, Oklahoma, USA
Distance from station: N 22mi, 36km
Updated: Fri, 09-30-2022 9:53am CDT
Clear
Clear
 Wind from S
Wind: S 12 mph , 19 km/h, Gust: 18 mph , 30 km/h
Temperature: 66°F , 19°C
Dew Point: 39°F , 4°C
Humidity: 37%
Barometer: 30.15 inHg , 1021 hPa
Clouds: Clear
Visibility: 10 miles , 16 km
2022/09/30 14:53 KPNC 301453Z AUTO 18010G16KT 10SM CLR 19/04 A3015 RMK AO2 SLP201 T01890044 50000
KSNL - Shawnee, Oklahoma, USA
Distance from station: S 74mi, 119km
Updated: Fri, 09-30-2022 10:35am CDT
Clear
Clear
 Wind from S
Wind: S 10 mph , 17 km/h
Temperature: 68°F , 20°C
Dew Point: 36°F , 2°C
Humidity: 30%
Barometer: 30.17 inHg , 1021.7 hPa
Clouds: Clear
Visibility: 10 miles , 16 km
2022/09/30 15:35 KSNL 301535Z AUTO 19009KT 10SM CLR 20/02 A3017 RMK AO2 T01950019